Mineola, TX

1:22 PM CDT on April 25, 2015 (GMT -0500)
Oak Hills | | Change Station
CLOSE
Current Station
Personal Weather Station
Location: Lindale, TX
Elevation: 554 ft
Nearby Weather Stations
Active Advisory: Lake Wind Advisory Active Notice: Public Information Statement

Elev 554 ft 32.56 °N, 95.47 °W | Updated 22 seconds ago

Clear
Clear
84.9 °F
Feels Like 86 °F
N
0.0
Wind Variable Wind from West
Gusts 3.0 mph

Today
High -- | Low -- °F
--% Chance of Precip.
Yesterday
High -- | Low -- °F
Precip. -- in
6:41 AM 7:59 PM
Waxing Crescent, 48% visible
Pressure 29.70 in
Visibility 10.0 miles
Clouds Clear
Heat Index 86 °F
Dew Point 63 °F
Humidity 48%
Rainfall 0.00 in
Snow Depth Not available.
UV 11 out of 12
Pollen 7.00 out of 12
Air Quality Not available.
Flu Activity Local Activity
METAR KSLR 251815Z AUTO 24011G15KT 10SM CLR 27/13 A2970 RMK AO2 T02720129

More Conditions Fewer Conditions

Pressure 29.70 in
Visibility 10.0 miles
Clouds Clear
Heat Index 86 °F
Dew Point 63 °F
Humidity 48%
Rainfall 0.00 in
Snow Depth Not available.
UV 11 out of 12
Pollen 7.00 out of 12
Air Quality Not available.
Flu Activity Local Activity
METAR KSLR 251815Z AUTO 24011G15KT 10SM CLR 27/13 A2970 RMK AO2 T02720129

More Conditions Fewer Conditions

10-Day Weather Forecast

Almanac

Astronomy

Apr. 25, 2015 Rise Set
Actual Time
Civil Twilight
Nautical Twilight
Astronomical Twilight
Moon
Length of Visible Light
Length of Day
Tomorrow will be .
, % of the Moon is Illuminated

Today's Extremes

State Highs State Lows

Community

WunderPhotos

Upload Photos

1,816,765 photos uploaded!

WunderBlogs® & News

Nearby

Air Quality

  Air Quality AQ Index Pollutant
Not available.

Snow Depth

Station Depth Elevation

Earthquake Activity

City Distance Mag. Time & Date
Minimum magnitude displayed is 2.5.

Coastal Water Temperatures

Place Temperature

Stations

Nearby Weather Stations

Station Location Temp. Windchill Dew Point Humidity Wind Precip. Elev Updated Type
                   
Lake Wind Advisory
Statement as of 4:31 AM CDT on April 25, 2015

... Lake Wind Advisory in effect from 9 am this morning to 7 PM
CDT this evening... for the four state region.

The National Weather Service in Shreveport has issued a lake Wind
Advisory... which is in effect from 9 am this morning to 7 PM CDT
this evening.

* Event... a tight pressure gradient associated with a surface low
pressure system moving across the plains toward the Tennessee
and Ohio valleys will produce strong and gusty winds of 15-20
mph with higher gusts to 25-30 mph.

* Timing... from 9 am to 7 PM CDT today.

* Impact... a rough chop may cause hazardous boating conditions on
area lakes and open waters.

Precautionary/preparedness actions...

A lake Wind Advisory indicates that winds will cause rough chop
on area lakes. Small boats will be especially prone to capsizing
after taking on water in the rough conditions.



06